Time;durP1;ratioP1;P1;durP2;ratioP2;P2;SDS_P1;SDS_P2;PMS_P1;PMS_P2;Temp;Humidity;BMP_temperature;BMP_pressure;BME280_temperature;BME280_humidity;BME280_pressure;Samples;Min_cycle;Max_cycle;Signal;HPM_P1;HPM_P2
2021/06/15 00:02:11;;;;;;;7.38;3.65;;;;;;;;;;5069490;28;20132;-36
2021/06/15 00:04:38;;;;;;;10.40;4.10;;;;;;;;;;5067157;28;20048;-36
2021/06/15 00:07:05;;;;;;;5.70;3.58;;;;;;;;;;5070045;28;20117;-36
2021/06/15 00:09:32;;;;;;;5.72;3.65;;;;;;;;;;5073029;28;20079;-36
2021/06/15 00:11:59;;;;;;;8.10;3.60;;;;;;;;;;5071144;28;20336;-36
2021/06/15 00:14:26;;;;;;;6.85;3.58;;;;;;;;;;5071872;28;20197;-36
2021/06/15 00:16:53;;;;;;;7.38;3.88;;;;;;;;;;5067015;28;20097;-36
2021/06/15 00:19:20;;;;;;;6.60;3.63;;;;;;;;;;5076597;28;20052;-36
2021/06/15 00:21:47;;;;;;;7.63;3.72;;;;;;;;;;5081669;28;20053;-36
2021/06/15 00:24:15;;;;;;;5.90;3.30;;;;;;;;;;5072156;28;20461;-37
2021/06/15 00:26:41;;;;;;;7.63;4.28;;;;;;;;;;5070929;28;20150;-36
2021/06/15 00:29:08;;;;;;;6.30;3.53;;;;;;;;;;5072352;28;20048;-36
2021/06/15 00:31:36;;;;;;;7.30;3.88;;;;;;;;;;5072538;28;20047;-36
2021/06/15 00:34:04;;;;;;;8.30;4.10;;;;;;;;;;5067235;28;20049;-36
2021/06/15 00:36:31;;;;;;;8.23;4.10;;;;;;;;;;5070279;28;20074;-36
2021/06/15 00:38:58;;;;;;;7.25;3.90;;;;;;;;;;5065033;28;20043;-35
2021/06/15 00:41:25;;;;;;;7.97;3.88;;;;;;;;;;5062883;28;20137;-36
2021/06/15 00:43:53;;;;;;;6.78;3.95;;;;;;;;;;5063194;28;20048;-36
2021/06/15 00:46:20;;;;;;;7.28;3.88;;;;;;;;;;5063353;28;20938;-37
2021/06/15 00:48:47;;;;;;;5.95;3.90;;;;;;;;;;5062658;28;20140;-36
2021/06/15 00:51:15;;;;;;;5.38;3.75;;;;;;;;;;5066919;28;20105;-36
2021/06/15 00:53:42;;;;;;;6.60;4.07;;;;;;;;;;5064171;28;20045;-36
2021/06/15 00:56:09;;;;;;;7.57;4.20;;;;;;;;;;5063412;28;20362;-36
2021/06/15 00:58:37;;;;;;;6.40;4.20;;;;;;;;;;5064348;28;20048;-36
2021/06/15 01:01:07;;;;;;;7.93;3.88;;;;;;;;;;5066547;28;21442;-36
2021/06/15 01:03:35;;;;;;;6.70;4.32;;;;;;;;;;5064657;28;20044;-36
2021/06/15 01:06:05;;;;;;;6.88;3.83;;;;;;;;;;5063730;28;20159;-36
2021/06/15 01:08:40;;;;;;;7.85;4.55;;;;;;;;;;5060519;28;20061;-36
2021/06/15 01:11:20;;;;;;;7.75;4.80;;;;;;;;;;5070964;28;20048;-36
2021/06/15 01:14:13;;;;;;;7.18;4.22;;;;;;;;;;5068364;28;20053;-36
2021/06/15 01:16:43;;;;;;;5.55;3.95;;;;;;;;;;5049779;28;20124;-36
2021/06/15 01:19:31;;;;;;;8.32;4.25;;;;;;;;;;5065944;28;20048;-36
2021/06/15 01:22:10;;;;;;;6.30;4.50;;;;;;;;;;5051622;28;20051;-36
2021/06/15 01:24:57;;;;;;;6.03;4.22;;;;;;;;;;5068595;28;20060;-36
2021/06/15 01:27:30;;;;;;;7.55;4.72;;;;;;;;;;5069190;28;20406;-35
2021/06/15 01:29:57;;;;;;;;;;;;;;;;;;5069881;28;20056;-36
2021/06/15 01:32:27;;;;;;;7.43;4.45;;;;;;;;;;5060138;28;19920;-36
2021/06/15 01:34:54;;;;;;;8.75;4.40;;;;;;;;;;5060074;28;20131;-37
2021/06/15 01:37:25;;;;;;;13.60;4.55;;;;;;;;;;5063363;28;20513;-36
2021/06/15 01:39:56;;;;;;;6.43;4.78;;;;;;;;;;5070498;28;20044;-36
2021/06/15 01:42:36;;;;;;;7.47;4.47;;;;;;;;;;5048414;28;20041;-37
2021/06/15 01:45:06;;;;;;;5.63;4.53;;;;;;;;;;5067829;28;20500;-37
2021/06/15 01:47:35;;;;;;;6.38;4.55;;;;;;;;;;5068811;28;20585;-35
2021/06/15 01:50:05;;;;;;;4.95;3.92;;;;;;;;;;5071039;28;20052;-35
2021/06/15 01:52:35;;;;;;;7.90;4.35;;;;;;;;;;5068673;28;20056;-36
2021/06/15 01:55:06;;;;;;;6.95;4.80;;;;;;;;;;5070665;28;20071;-36
2021/06/15 01:57:54;;;;;;;7.95;4.30;;;;;;;;;;5070971;28;20048;-36
2021/06/15 02:00:22;;;;;;;6.13;4.20;;;;;;;;;;5069595;28;20044;-35
2021/06/15 02:02:55;;;;;;;6.15;4.50;;;;;;;;;;5068704;28;20045;-37
2021/06/15 02:05:32;;;;;;;6.35;4.32;;;;;;;;;;5075419;28;20044;-37
2021/06/15 02:08:01;;;;;;;6.53;4.57;;;;;;;;;;5080576;28;20589;-36
2021/06/15 02:10:30;;;;;;;7.28;4.30;;;;;;;;;;5081501;28;20052;-36
2021/06/15 02:13:26;;;;;;;6.75;4.40;;;;;;;;;;5068490;28;20044;-35
2021/06/15 02:16:25;;;;;;;7.65;4.68;;;;;;;;;;5075016;28;20048;-35
2021/06/15 02:19:12;;;;;;;8.27;5.45;;;;;;;;;;5074041;28;20045;-36
2021/06/15 02:21:49;;;;;;;7.97;4.82;;;;;;;;;;5073218;28;20041;-37
2021/06/15 02:24:17;;;;;;;5.85;4.10;;;;;;;;;;5073138;28;20650;-37
2021/06/15 02:26:45;;;;;;;8.93;4.43;;;;;;;;;;5056720;28;20071;-36
2021/06/15 02:29:12;;;;;;;6.80;4.50;;;;;;;;;;5074310;28;20057;-37
2021/06/15 02:31:42;;;;;;;7.40;4.65;;;;;;;;;;5070468;28;20052;-37
2021/06/15 02:34:12;;;;;;;8.40;4.63;;;;;;;;;;5062565;28;20054;-37
2021/06/15 02:36:47;;;;;;;7.40;4.70;;;;;;;;;;5075392;28;20034;-37
2021/06/15 02:39:34;;;;;;;8.23;4.70;;;;;;;;;;5079823;28;20420;-37
2021/06/15 02:42:03;;;;;;;7.72;4.50;;;;;;;;;;5073078;28;20102;-36
2021/06/15 02:44:33;;;;;;;5.15;4.05;;;;;;;;;;5070060;28;20041;-37
2021/06/15 02:47:02;;;;;;;7.32;4.55;;;;;;;;;;5057138;28;20686;-35
2021/06/15 02:49:37;;;;;;;5.57;4.07;;;;;;;;;;5071156;28;20053;-35
2021/06/15 02:52:12;;;;;;;9.65;4.55;;;;;;;;;;5054582;28;20097;-35
2021/06/15 02:54:53;;;;;;;7.97;5.00;;;;;;;;;;5069860;28;20512;-35
2021/06/15 02:57:21;;;;;;;6.32;3.92;;;;;;;;;;5073545;28;20497;-35
2021/06/15 02:59:49;;;;;;;8.07;4.22;;;;;;;;;;5062959;28;20042;-36
2021/06/15 03:02:16;;;;;;;5.70;4.40;;;;;;;;;;5064678;28;20045;-36
2021/06/15 03:04:46;;;;;;;8.30;4.72;;;;;;;;;;5065631;28;20044;-36
2021/06/15 03:07:14;;;;;;;9.60;4.32;;;;;;;;;;5071387;28;20049;-36
2021/06/15 03:09:42;;;;;;;5.97;4.30;;;;;;;;;;5073694;28;20047;-36
2021/06/15 03:12:17;;;;;;;6.85;4.78;;;;;;;;;;5070528;28;20051;-37
2021/06/15 03:15:00;;;;;;;7.13;4.35;;;;;;;;;;5071303;28;20044;-36
2021/06/15 03:17:30;;;;;;;7.72;4.75;;;;;;;;;;5085002;28;20139;-36
2021/06/15 03:20:11;;;;;;;7.90;4.70;;;;;;;;;;5072362;28;20055;-36
2021/06/15 03:22:44;;;;;;;8.50;4.30;;;;;;;;;;5075777;28;20079;-36
2021/06/15 03:25:12;;;;;;;9.00;4.30;;;;;;;;;;5087439;28;20052;-36
2021/06/15 03:27:42;;;;;;;8.13;4.53;;;;;;;;;;5075768;28;20051;-35
2021/06/15 03:30:10;;;;;;;8.40;4.78;;;;;;;;;;5074572;28;20121;-35
2021/06/15 03:33:01;;;;;;;11.65;4.88;;;;;;;;;;5070748;28;20060;-37
2021/06/15 03:35:30;;;;;;;11.02;5.28;;;;;;;;;;5052674;28;20078;-35
2021/06/15 03:38:01;;;;;;;10.10;4.80;;;;;;;;;;5072727;28;20087;-37
2021/06/15 03:40:35;;;;;;;9.40;4.50;;;;;;;;;;5071385;28;20625;-35
2021/06/15 03:43:02;;;;;;;10.52;5.07;;;;;;;;;;5070691;28;20076;-35
2021/06/15 03:45:31;;;;;;;9.40;4.97;;;;;;;;;;5071990;28;20052;-35
2021/06/15 03:47:59;;;;;;;6.57;4.85;;;;;;;;;;5069998;28;20102;-35
2021/06/15 03:50:27;;;;;;;8.27;4.78;;;;;;;;;;5073897;28;20055;-36
2021/06/15 03:52:56;;;;;;;7.85;4.68;;;;;;;;;;5072533;28;20060;-36
2021/06/15 03:55:25;;;;;;;8.13;4.53;;;;;;;;;;5072301;28;20052;-36
2021/06/15 03:57:53;;;;;;;9.02;5.15;;;;;;;;;;5068246;28;20052;-35
2021/06/15 04:00:23;;;;;;;8.27;4.80;;;;;;;;;;5072757;28;20048;-35
2021/06/15 04:02:52;;;;;;;9.75;5.07;;;;;;;;;;5068384;28;20041;-35
2021/06/15 04:05:20;;;;;;;12.60;5.93;;;;;;;;;;5070932;28;20057;-35
2021/06/15 04:07:47;;;;;;;7.18;4.85;;;;;;;;;;5072586;28;20048;-35
2021/06/15 04:10:13;;;;;;;9.57;4.82;;;;;;;;;;5072420;28;20052;-36
2021/06/15 04:12:40;;;;;;;9.13;4.88;;;;;;;;;;5070816;28;20044;-35
2021/06/15 04:15:08;;;;;;;8.90;5.75;;;;;;;;;;5068888;28;20052;-34
2021/06/15 04:17:36;;;;;;;7.90;5.55;;;;;;;;;;5070680;28;20155;-35
2021/06/15 04:20:04;;;;;;;7.25;5.30;;;;;;;;;;5070918;28;20456;-35
2021/06/15 04:22:33;;;;;;;9.27;5.28;;;;;;;;;;5071025;28;20080;-35
2021/06/15 04:25:04;;;;;;;6.00;4.28;;;;;;;;;;5071131;28;20533;-36
2021/06/15 04:27:34;;;;;;;9.00;4.80;;;;;;;;;;5067573;28;20136;-39
2021/06/15 04:30:02;;;;;;;7.22;5.10;;;;;;;;;;5069559;28;20480;-35
2021/06/15 04:32:34;;;;;;;8.02;5.22;;;;;;;;;;5070969;28;20113;-35
2021/06/15 04:35:04;;;;;;;8.13;5.20;;;;;;;;;;5072107;28;20052;-35
2021/06/15 04:37:31;;;;;;;10.85;5.18;;;;;;;;;;5072310;28;20075;-36
2021/06/15 04:40:04;;;;;;;11.73;5.50;;;;;;;;;;5069962;28;20114;-34
2021/06/15 04:42:36;;;;;;;9.80;5.75;;;;;;;;;;5076269;28;20052;-36
2021/06/15 04:45:03;;;;;;;9.30;5.57;;;;;;;;;;5080484;28;20052;-36
2021/06/15 04:47:34;;;;;;;10.43;5.35;;;;;;;;;;5082341;28;20060;-36
2021/06/15 04:50:24;;;;;;;11.02;6.22;;;;;;;;;;5080465;28;20048;-36
2021/06/15 04:52:52;;;;;;;11.55;6.57;;;;;;;;;;5081706;28;20048;-36
2021/06/15 04:55:20;;;;;;;12.15;6.20;;;;;;;;;;5078506;28;20444;-36
2021/06/15 04:57:48;;;;;;;9.88;6.28;;;;;;;;;;5070991;28;20122;-36
2021/06/15 05:00:16;;;;;;;12.02;5.93;;;;;;;;;;5071779;28;20068;-36
2021/06/15 05:02:43;;;;;;;8.52;5.55;;;;;;;;;;5070790;28;20045;-36
2021/06/15 05:05:10;;;;;;;9.60;5.82;;;;;;;;;;5072876;28;20482;-36
2021/06/15 05:07:39;;;;;;;10.95;5.25;;;;;;;;;;5072044;28;20106;-36
2021/06/15 05:10:07;;;;;;;10.93;5.28;;;;;;;;;;5071308;28;20113;-37
2021/06/15 05:12:35;;;;;;;9.82;5.65;;;;;;;;;;5070560;28;20052;-36
2021/06/15 05:15:07;;;;;;;11.60;5.10;;;;;;;;;;5072801;28;20056;-36
2021/06/15 05:17:41;;;;;;;7.68;4.90;;;;;;;;;;5071679;28;20048;-37
2021/06/15 05:20:09;;;;;;;10.20;5.00;;;;;;;;;;5072468;28;20044;-37
2021/06/15 05:22:54;;;;;;;10.20;5.50;;;;;;;;;;5071161;28;20105;-37
2021/06/15 05:25:21;;;;;;;9.27;4.47;;;;;;;;;;5057078;28;20052;-37
2021/06/15 05:27:49;;;;;;;8.55;4.57;;;;;;;;;;5071396;28;20682;-37
2021/06/15 05:30:16;;;;;;;8.45;4.68;;;;;;;;;;5073233;28;20072;-37
2021/06/15 05:32:43;;;;;;;8.63;4.97;;;;;;;;;;5072230;28;20048;-36
2021/06/15 05:35:10;;;;;;;8.43;5.13;;;;;;;;;;5072132;28;20048;-36
2021/06/15 05:37:37;;;;;;;8.52;5.07;;;;;;;;;;5070000;28;20083;-35
2021/06/15 05:40:04;;;;;;;8.70;5.38;;;;;;;;;;5071203;28;20078;-36
2021/06/15 05:42:31;;;;;;;8.27;4.85;;;;;;;;;;5070933;28;20072;-36
2021/06/15 05:44:58;;;;;;;7.65;5.63;;;;;;;;;;5062615;28;20059;-36
2021/06/15 05:47:25;;;;;;;10.48;4.97;;;;;;;;;;5070857;28;20048;-36
2021/06/15 05:49:52;;;;;;;6.70;4.72;;;;;;;;;;5070503;28;20053;-36
2021/06/15 05:52:19;;;;;;;8.82;5.38;;;;;;;;;;5075792;28;20057;-38
2021/06/15 05:54:46;;;;;;;8.32;4.53;;;;;;;;;;5071732;28;20052;-36
2021/06/15 05:57:12;;;;;;;8.45;4.50;;;;;;;;;;5056050;28;20084;-37
2021/06/15 05:59:39;;;;;;;8.50;5.05;;;;;;;;;;5070869;28;20064;-37
2021/06/15 06:02:06;;;;;;;10.10;5.25;;;;;;;;;;5072492;28;20482;-38
2021/06/15 06:04:50;;;;;;;8.02;4.75;;;;;;;;;;5074293;28;20049;-36
2021/06/15 06:10:03;;;;;;;8.20;5.00;;;;;;;;;;5070177;28;20463;-36
2021/06/15 06:12:30;;;;;;;9.27;4.50;;;;;;;;;;5071364;28;20128;-36
2021/06/15 06:14:57;;;;;;;11.10;4.82;;;;;;;;;;5073691;28;20135;-38
2021/06/15 06:17:24;;;;;;;6.93;4.70;;;;;;;;;;5073970;28;20086;-37
2021/06/15 06:20:05;;;;;;;9.35;5.28;;;;;;;;;;5057529;28;20064;-37
2021/06/15 06:22:32;;;;;;;9.73;5.05;;;;;;;;;;5074930;28;20080;-38
2021/06/15 06:25:01;;;;;;;7.50;4.47;;;;;;;;;;5073286;28;20049;-37
2021/06/15 06:27:28;;;;;;;6.68;4.20;;;;;;;;;;5073796;28;20082;-38
2021/06/15 06:29:55;;;;;;;7.18;3.60;;;;;;;;;;5075006;28;20497;-37
2021/06/15 06:32:21;;;;;;;8.73;4.40;;;;;;;;;;5073342;28;20444;-38
2021/06/15 06:34:48;;;;;;;8.77;4.60;;;;;;;;;;5072906;28;20055;-37
2021/06/15 06:37:15;;;;;;;8.07;3.80;;;;;;;;;;5068254;28;20044;-37
2021/06/15 06:39:42;;;;;;;10.30;5.47;;;;;;;;;;5070442;28;20044;-37
2021/06/15 06:42:09;;;;;;;8.02;4.80;;;;;;;;;;5074500;28;20123;-37
2021/06/15 06:44:36;;;;;;;7.25;4.50;;;;;;;;;;5068732;28;20049;-37
2021/06/15 06:47:03;;;;;;;8.98;4.40;;;;;;;;;;5070427;28;20056;-37
2021/06/15 06:49:30;;;;;;;7.80;5.05;;;;;;;;;;5070744;28;20532;-37
2021/06/15 06:51:56;;;;;;;10.52;4.78;;;;;;;;;;5073224;28;20123;-37
2021/06/15 06:54:23;;;;;;;7.68;4.80;;;;;;;;;;5070390;28;20083;-37
2021/06/15 06:56:52;;;;;;;8.52;4.82;;;;;;;;;;5068077;28;20048;-36
2021/06/15 06:59:18;;;;;;;10.23;5.43;;;;;;;;;;5072163;28;20044;-38
2021/06/15 07:01:45;;;;;;;11.63;5.38;;;;;;;;;;5070610;28;20098;-37
2021/06/15 07:04:13;;;;;;;9.35;5.88;;;;;;;;;;5066834;28;20070;-37
2021/06/15 07:06:40;;;;;;;11.80;6.05;;;;;;;;;;5071365;28;20048;-37
2021/06/15 07:09:07;;;;;;;13.25;5.00;;;;;;;;;;5061832;28;20087;-37
2021/06/15 07:11:34;;;;;;;8.52;4.38;;;;;;;;;;5055417;28;20045;-37
2021/06/15 07:14:01;;;;;;;9.68;5.05;;;;;;;;;;5047163;28;20513;-37
2021/06/15 07:16:28;;;;;;;17.05;5.78;;;;;;;;;;5058678;28;20107;-38
2021/06/15 07:18:55;;;;;;;8.48;4.88;;;;;;;;;;5050624;28;20117;-38
2021/06/15 07:21:22;;;;;;;16.80;5.22;;;;;;;;;;5072855;28;20048;-37
2021/06/15 07:23:49;;;;;;;14.65;5.22;;;;;;;;;;5070980;28;20041;-37
2021/06/15 07:26:16;;;;;;;13.73;6.13;;;;;;;;;;5065066;28;20057;-38
2021/06/15 07:28:42;;;;;;;8.38;4.43;;;;;;;;;;5059420;28;20158;-38
2021/06/15 07:31:09;;;;;;;12.77;4.80;;;;;;;;;;5072679;28;20391;-37
2021/06/15 07:33:36;;;;;;;13.38;4.30;;;;;;;;;;5073473;28;20131;-38
2021/06/15 07:36:03;;;;;;;15.60;4.85;;;;;;;;;;5072828;28;21126;-38
2021/06/15 07:38:30;;;;;;;10.38;4.40;;;;;;;;;;5070944;28;20470;-37
2021/06/15 07:40:57;;;;;;;9.88;4.50;;;;;;;;;;5063471;28;20064;-38
2021/06/15 07:43:24;;;;;;;8.57;4.10;;;;;;;;;;5072789;28;20101;-38
2021/06/15 07:45:51;;;;;;;9.15;3.92;;;;;;;;;;5065112;28;20061;-37
2021/06/15 07:48:18;;;;;;;6.03;3.28;;;;;;;;;;5068265;28;20084;-38
2021/06/15 07:50:44;;;;;;;8.10;3.95;;;;;;;;;;5071824;28;20127;-37
2021/06/15 07:53:12;;;;;;;9.38;4.15;;;;;;;;;;5071301;28;20062;-37
2021/06/15 07:55:39;;;;;;;6.13;3.50;;;;;;;;;;5074298;28;20069;-37
2021/06/15 07:58:06;;;;;;;8.45;3.28;;;;;;;;;;5072046;28;20080;-38
2021/06/15 08:00:33;;;;;;;6.25;3.33;;;;;;;;;;5071678;28;20126;-37
2021/06/15 08:03:00;;;;;;;11.25;3.50;;;;;;;;;;5061757;28;20044;-35
2021/06/15 08:05:27;;;;;;;4.78;3.00;;;;;;;;;;5069000;28;20514;-36
2021/06/15 08:07:54;;;;;;;8.20;3.20;;;;;;;;;;5063354;28;20103;-36
2021/06/15 08:10:21;;;;;;;5.03;2.83;;;;;;;;;;5061106;28;20094;-36
2021/06/15 08:12:49;;;;;;;4.95;2.97;;;;;;;;;;5072110;28;20054;-38
2021/06/15 08:15:16;;;;;;;7.20;2.92;;;;;;;;;;5070265;28;20067;-36
2021/06/15 08:17:43;;;;;;;6.65;2.97;;;;;;;;;;5063551;28;20109;-36
2021/06/15 08:20:11;;;;;;;6.50;2.45;;;;;;;;;;5069819;28;20060;-36
2021/06/15 08:22:38;;;;;;;5.68;2.95;;;;;;;;;;5064592;28;20040;-36
2021/06/15 08:25:06;;;;;;;8.23;2.55;;;;;;;;;;5067332;28;20044;-37
2021/06/15 08:27:37;;;;;;;6.22;2.78;;;;;;;;;;5068328;28;20109;-37
2021/06/15 08:30:04;;;;;;;5.38;2.65;;;;;;;;;;5070652;28;20457;-36
2021/06/15 08:32:31;;;;;;;6.78;2.58;;;;;;;;;;5070453;28;20063;-37
2021/06/15 08:34:58;;;;;;;8.65;2.60;;;;;;;;;;5067470;28;20532;-37
2021/06/15 08:37:24;;;;;;;6.45;2.83;;;;;;;;;;5060914;28;20076;-38
2021/06/15 08:39:51;;;;;;;6.13;2.83;;;;;;;;;;5070351;28;20076;-43
2021/06/15 08:42:18;;;;;;;5.40;2.60;;;;;;;;;;5064539;28;20091;-38
2021/06/15 08:44:45;;;;;;;6.15;2.50;;;;;;;;;;5070596;28;20048;-38
2021/06/15 08:47:16;;;;;;;5.78;2.60;;;;;;;;;;5068008;28;20041;-38
2021/06/15 08:49:43;;;;;;;8.35;2.80;;;;;;;;;;5071220;28;20068;-37
2021/06/15 08:52:10;;;;;;;5.82;2.60;;;;;;;;;;5067335;28;20080;-38
2021/06/15 08:54:37;;;;;;;8.20;2.50;;;;;;;;;;5070332;28;20074;-39
2021/06/15 08:57:04;;;;;;;4.68;2.47;;;;;;;;;;5062880;28;20094;-38
2021/06/15 08:59:31;;;;;;;6.63;2.35;;;;;;;;;;5067763;28;20596;-38
2021/06/15 09:01:59;;;;;;;3.90;2.47;;;;;;;;;;5071464;28;20123;-37
2021/06/15 09:04:26;;;;;;;4.57;2.42;;;;;;;;;;5071800;28;20524;-38
2021/06/15 09:06:56;;;;;;;4.40;2.10;;;;;;;;;;5071018;28;20048;-37
2021/06/15 09:09:36;;;;;;;5.60;2.45;;;;;;;;;;5066460;28;20425;-37
2021/06/15 09:12:03;;;;;;;7.70;2.88;;;;;;;;;;5069872;28;20044;-37
2021/06/15 09:15:02;;;;;;;6.38;2.42;;;;;;;;;;5071249;28;20056;-37
2021/06/15 09:17:29;;;;;;;3.80;2.20;;;;;;;;;;5068643;28;20090;-37
2021/06/15 09:20:08;;;;;;;3.45;2.10;;;;;;;;;;5072554;28;20044;-37
2021/06/15 09:22:35;;;;;;;5.05;2.50;;;;;;;;;;5072405;28;20078;-37
2021/06/15 09:25:03;;;;;;;6.40;2.38;;;;;;;;;;5078528;28;20542;-38
2021/06/15 09:27:31;;;;;;;7.45;2.67;;;;;;;;;;5075803;28;20099;-38
2021/06/15 09:29:59;;;;;;;4.43;2.17;;;;;;;;;;5073326;28;20100;-38
2021/06/15 09:32:28;;;;;;;3.78;2.00;;;;;;;;;;5072343;28;20052;-38
2021/06/15 09:34:59;;;;;;;5.72;2.10;;;;;;;;;;5073979;28;20040;-38
2021/06/15 09:37:27;;;;;;;6.80;2.25;;;;;;;;;;5067128;28;20044;-38
2021/06/15 09:39:54;;;;;;;5.53;2.10;;;;;;;;;;5075577;28;20048;-38
2021/06/15 09:42:21;;;;;;;4.43;2.33;;;;;;;;;;5073023;28;20104;-38
2021/06/15 09:44:48;;;;;;;4.47;2.30;;;;;;;;;;5071658;28;20110;-38
2021/06/15 09:47:15;;;;;;;6.50;2.45;;;;;;;;;;5075053;28;20068;-38
2021/06/15 09:49:43;;;;;;;5.55;2.20;;;;;;;;;;5074548;28;20136;-37
2021/06/15 09:52:13;;;;;;;6.55;2.20;;;;;;;;;;5074157;28;20076;-37
2021/06/15 09:54:45;;;;;;;5.70;2.05;;;;;;;;;;5068958;28;20052;-37
2021/06/15 09:57:19;;;;;;;3.15;1.98;;;;;;;;;;5068311;28;20044;-37
2021/06/15 10:00:13;;;;;;;4.57;2.15;;;;;;;;;;5067894;28;20033;-37
2021/06/15 10:02:48;;;;;;;5.65;2.20;;;;;;;;;;5064502;28;20122;-37
2021/06/15 10:05:23;;;;;;;4.97;1.90;;;;;;;;;;5066005;28;20040;-37
2021/06/15 10:07:50;;;;;;;4.13;2.20;;;;;;;;;;5068966;28;20413;-37
2021/06/15 10:10:18;;;;;;;4.15;1.95;;;;;;;;;;5069695;28;20094;-37
2021/06/15 10:12:46;;;;;;;3.28;1.90;;;;;;;;;;5065669;28;20052;-37
2021/06/15 10:15:13;;;;;;;6.28;2.42;;;;;;;;;;5064211;28;20406;-37
2021/06/15 10:17:41;;;;;;;5.90;2.42;;;;;;;;;;5069615;28;20042;-37
2021/06/15 10:20:09;;;;;;;4.75;2.15;;;;;;;;;;5067880;28;20059;-37
2021/06/15 10:22:36;;;;;;;6.68;2.33;;;;;;;;;;5072879;28;20072;-37
2021/06/15 10:25:04;;;;;;;6.13;2.38;;;;;;;;;;5073344;28;20063;-37
2021/06/15 10:27:31;;;;;;;4.47;2.20;;;;;;;;;;5070268;28;20059;-37
2021/06/15 10:29:58;;;;;;;8.95;2.15;;;;;;;;;;5070686;28;20056;-37
2021/06/15 10:32:26;;;;;;;4.95;2.33;;;;;;;;;;5072719;28;20067;-37
2021/06/15 10:34:56;;;;;;;4.80;2.10;;;;;;;;;;5071792;28;20452;-37
2021/06/15 10:37:32;;;;;;;3.63;2.20;;;;;;;;;;5073100;28;20508;-37
2021/06/15 10:40:00;;;;;;;5.13;2.40;;;;;;;;;;5075977;28;20048;-37
2021/06/15 10:42:28;;;;;;;6.70;2.20;;;;;;;;;;5079402;28;20490;-37
2021/06/15 10:45:13;;;;;;;4.95;2.20;;;;;;;;;;5076231;28;20114;-38
2021/06/15 10:47:41;;;;;;;4.78;2.00;;;;;;;;;;5071298;28;20074;-37
2021/06/15 10:50:10;;;;;;;3.53;1.90;;;;;;;;;;5067878;28;20048;-37
2021/06/15 10:52:57;;;;;;;3.40;2.05;;;;;;;;;;5081281;28;20518;-36
2021/06/15 10:55:41;;;;;;;5.18;1.92;;;;;;;;;;5070037;28;20048;-36
2021/06/15 10:58:09;;;;;;;9.20;2.10;;;;;;;;;;5070310;28;20106;-35
2021/06/15 11:00:47;;;;;;;5.90;1.80;;;;;;;;;;5074156;28;20048;-37
2021/06/15 11:03:18;;;;;;;3.35;1.83;;;;;;;;;;5052618;28;20049;-36
2021/06/15 11:05:44;;;;;;;2.80;1.67;;;;;;;;;;5070263;28;20087;-36
2021/06/15 11:08:16;;;;;;;3.65;1.65;;;;;;;;;;5070141;28;20048;-38
2021/06/15 11:10:47;;;;;;;4.10;1.90;;;;;;;;;;5070600;28;20072;-38
2021/06/15 11:13:14;;;;;;;3.20;1.60;;;;;;;;;;5075244;28;20098;-37
2021/06/15 11:16:00;;;;;;;3.83;1.50;;;;;;;;;;5073873;28;20059;-38
2021/06/15 11:18:27;;;;;;;4.70;1.70;;;;;;;;;;5083685;28;20048;-39
2021/06/15 11:21:15;;;;;;;6.85;1.80;;;;;;;;;;5078145;28;20043;-38
2021/06/15 11:23:41;;;;;;;2.00;1.48;;;;;;;;;;5083778;28;20045;-39
2021/06/15 11:26:13;;;;;;;5.80;1.42;;;;;;;;;;5081891;28;20043;-37
2021/06/15 11:28:41;;;;;;;6.88;1.50;;;;;;;;;;5075433;28;20056;-36
2021/06/15 11:31:17;;;;;;;3.88;1.45;;;;;;;;;;5056291;28;20490;-36
2021/06/15 11:34:02;;;;;;;4.32;1.70;;;;;;;;;;5069711;28;20513;-37
2021/06/15 11:36:39;;;;;;;4.57;1.35;;;;;;;;;;5075939;28;20048;-38
2021/06/15 11:39:22;;;;;;;4.88;1.40;;;;;;;;;;5072991;28;20044;-36
2021/06/15 11:42:07;;;;;;;5.43;1.98;;;;;;;;;;5064147;28;20049;-37
2021/06/15 11:44:54;;;;;;;2.95;1.77;;;;;;;;;;5067981;28;20087;-36
2021/06/15 11:47:22;;;;;;;5.55;1.52;;;;;;;;;;5067467;28;20078;-36
2021/06/15 11:50:03;;;;;;;2.70;1.52;;;;;;;;;;5068762;28;20044;-37
2021/06/15 11:52:31;;;;;;;2.83;1.83;;;;;;;;;;5066043;28;20122;-36
2021/06/15 11:54:58;;;;;;;4.00;1.63;;;;;;;;;;5067463;28;20049;-40
2021/06/15 11:57:25;;;;;;;3.45;1.50;;;;;;;;;;5068295;28;20048;-36
2021/06/15 11:59:52;;;;;;;3.55;1.63;;;;;;;;;;5068899;28;20045;-36
2021/06/15 12:02:19;;;;;;;3.78;1.83;;;;;;;;;;5066850;28;20097;-37
2021/06/15 12:05:02;;;;;;;3.47;1.80;;;;;;;;;;5061558;28;20072;-37
2021/06/15 12:07:29;;;;;;;;;;;;;;;;;;5069411;28;20081;-36
2021/06/15 12:10:07;;;;;;;4.13;1.83;;;;;;;;;;5086394;28;20011;-35
2021/06/15 12:12:53;;;;;;;2.65;1.50;;;;;;;;;;5072203;28;20060;-40
2021/06/15 12:15:40;;;;;;;3.50;1.60;;;;;;;;;;5067012;28;20546;-37
2021/06/15 12:18:14;;;;;;;3.25;1.58;;;;;;;;;;5067159;28;20068;-36
2021/06/15 12:20:42;;;;;;;3.83;1.92;;;;;;;;;;5071773;28;20052;-38
2021/06/15 12:23:28;;;;;;;3.92;1.60;;;;;;;;;;5065933;28;20522;-37
2021/06/15 12:26:03;;;;;;;3.17;1.77;;;;;;;;;;5067826;28;20070;-37
2021/06/15 12:28:30;;;;;;;3.60;1.60;;;;;;;;;;5066122;28;20090;-39
2021/06/15 12:31:16;;;;;;;4.65;1.75;;;;;;;;;;5075487;28;20177;-38
2021/06/15 12:33:45;;;;;;;4.68;1.73;;;;;;;;;;5068726;28;20056;-37
2021/06/15 12:36:13;;;;;;;4.80;1.80;;;;;;;;;;5083311;22;20070;-35
2021/06/15 12:38:41;;;;;;;3.67;1.65;;;;;;;;;;5065279;28;20049;-36
2021/06/15 12:41:12;;;;;;;4.57;1.63;;;;;;;;;;5056510;28;20072;-35
2021/06/15 12:43:40;;;;;;;3.63;1.70;;;;;;;;;;5069203;28;20040;-35
2021/06/15 12:46:07;;;;;;;6.47;2.00;;;;;;;;;;5069387;28;20133;-36
2021/06/15 12:48:34;;;;;;;3.47;1.70;;;;;;;;;;5059996;28;20056;-36
2021/06/15 12:51:05;;;;;;;3.67;1.88;;;;;;;;;;5057283;28;20045;-36
2021/06/15 12:53:34;;;;;;;3.53;1.90;;;;;;;;;;5063144;28;20141;-36
2021/06/15 12:56:11;;;;;;;4.38;1.70;;;;;;;;;;5065533;28;20512;-37
2021/06/15 12:58:38;;;;;;;3.45;2.05;;;;;;;;;;5052441;28;20124;-36
2021/06/15 13:01:15;;;;;;;3.35;2.00;;;;;;;;;;5061739;28;20442;-36
2021/06/15 13:03:47;;;;;;;5.38;2.30;;;;;;;;;;5070170;28;20036;-36
2021/06/15 13:06:15;;;;;;;3.67;2.10;;;;;;;;;;5064426;28;20037;-36
2021/06/15 13:08:42;;;;;;;5.30;2.10;;;;;;;;;;5050967;28;20049;-36
2021/06/15 13:11:09;;;;;;;3.70;2.22;;;;;;;;;;5067382;28;20082;-36
2021/06/15 13:13:36;;;;;;;6.53;2.25;;;;;;;;;;5070543;28;20383;-36
2021/06/15 13:16:13;;;;;;;4.80;2.20;;;;;;;;;;5065895;28;20071;-36
2021/06/15 13:18:40;;;;;;;8.05;2.38;;;;;;;;;;5061008;28;20134;-36
2021/06/15 13:21:07;;;;;;;4.75;2.00;;;;;;;;;;5056730;28;20077;-36
2021/06/15 13:23:33;;;;;;;4.60;2.13;;;;;;;;;;5056318;28;20134;-36
2021/06/15 13:26:16;;;;;;;5.00;2.03;;;;;;;;;;5061251;28;20072;-35
2021/06/15 13:28:43;;;;;;;;;;;;;;;;;;5066978;28;20086;-36
2021/06/15 13:31:21;;;;;;;4.05;2.47;;;;;;;;;;5069144;28;19920;-36
2021/06/15 13:33:48;;;;;;;3.38;2.20;;;;;;;;;;5070362;28;20063;-36
2021/06/15 13:36:22;;;;;;;6.18;2.00;;;;;;;;;;5069693;28;20135;-36
2021/06/15 13:38:49;;;;;;;5.28;2.10;;;;;;;;;;5070783;28;20044;-36
2021/06/15 13:41:23;;;;;;;4.38;2.00;;;;;;;;;;5070592;28;20072;-36
2021/06/15 13:43:50;;;;;;;3.42;2.10;;;;;;;;;;5070222;28;20114;-36
2021/06/15 13:46:18;;;;;;;3.42;2.00;;;;;;;;;;5069823;28;20052;-36
2021/06/15 13:49:08;;;;;;;6.25;2.15;;;;;;;;;;5081861;28;20131;-37
2021/06/15 13:51:37;;;;;;;3.30;2.05;;;;;;;;;;5074938;28;20048;-36
2021/06/15 13:54:04;;;;;;;5.65;2.40;;;;;;;;;;5070606;28;20084;-36
2021/06/15 13:56:31;;;;;;;5.28;2.10;;;;;;;;;;5071363;28;20100;-36
2021/06/15 13:58:59;;;;;;;3.63;2.05;;;;;;;;;;5066405;28;20056;-36
2021/06/15 14:01:26;;;;;;;7.47;2.40;;;;;;;;;;5072824;28;20060;-36
2021/06/15 14:03:53;;;;;;;4.38;2.22;;;;;;;;;;5071569;28;20052;-36
2021/06/15 14:06:20;;;;;;;4.20;2.15;;;;;;;;;;5069158;28;20221;-36
2021/06/15 14:08:48;;;;;;;3.50;2.10;;;;;;;;;;5070412;28;20131;-36
2021/06/15 14:11:16;;;;;;;4.30;2.00;;;;;;;;;;5087647;28;20135;-36
2021/06/15 14:13:43;;;;;;;6.43;2.17;;;;;;;;;;5091035;28;20163;-36
2021/06/15 14:16:09;;;;;;;6.80;2.22;;;;;;;;;;5073570;28;20080;-36
2021/06/15 14:18:37;;;;;;;4.95;2.20;;;;;;;;;;5061432;28;20073;-36
2021/06/15 14:21:05;;;;;;;3.72;2.15;;;;;;;;;;5054050;28;20077;-36
2021/06/15 14:23:32;;;;;;;4.43;2.17;;;;;;;;;;5053954;28;20072;-36
2021/06/15 14:26:00;;;;;;;3.45;2.25;;;;;;;;;;5053139;28;20052;-36
2021/06/15 14:28:27;;;;;;;3.90;1.77;;;;;;;;;;5067686;28;20052;-36
2021/06/15 14:30:56;;;;;;;5.75;2.72;;;;;;;;;;5073998;28;20136;-36
2021/06/15 14:33:23;;;;;;;6.53;2.47;;;;;;;;;;5073951;28;20127;-37
2021/06/15 14:35:50;;;;;;;4.47;2.20;;;;;;;;;;5072761;28;20076;-36
2021/06/15 14:38:18;;;;;;;4.72;2.25;;;;;;;;;;5073568;28;20106;-36
2021/06/15 14:40:44;;;;;;;8.25;2.30;;;;;;;;;;5073481;28;20110;-36
2021/06/15 14:43:11;;;;;;;4.00;1.92;;;;;;;;;;5066079;28;20458;-36
2021/06/15 14:45:39;;;;;;;5.82;2.20;;;;;;;;;;5053002;28;20135;-36
2021/06/15 14:48:06;;;;;;;3.92;2.00;;;;;;;;;;5061725;28;20124;-36
2021/06/15 14:50:33;;;;;;;5.05;2.40;;;;;;;;;;5073206;28;20053;-36
2021/06/15 14:53:00;;;;;;;7.97;2.33;;;;;;;;;;5077221;28;20147;-36
2021/06/15 14:55:27;;;;;;;5.25;2.35;;;;;;;;;;5066403;28;20456;-36
2021/06/15 14:57:53;;;;;;;4.13;2.20;;;;;;;;;;5053538;28;20135;-36
2021/06/15 15:00:20;;;;;;;5.93;2.25;;;;;;;;;;5053342;28;20132;-36
2021/06/15 15:02:49;;;;;;;4.20;2.00;;;;;;;;;;5053253;28;20076;-37
2021/06/15 15:05:16;;;;;;;3.22;2.00;;;;;;;;;;5061759;28;20128;-36